createdAt,value
2023-05-14T00:01:02.965Z,78.17
2023-05-14T00:03:29.791Z,78.55
2023-05-14T00:05:56.594Z,79.21
2023-05-14T00:08:23.393Z,79.14
2023-05-14T00:10:49.993Z,79.43
2023-05-14T00:13:16.622Z,79.34
2023-05-14T00:15:43.536Z,79.71
2023-05-14T00:18:12.181Z,79.47
2023-05-14T00:20:38.904Z,79.80
2023-05-14T00:23:05.509Z,79.97
2023-05-14T00:25:32.222Z,79.67
2023-05-14T00:27:58.889Z,79.64
2023-05-14T00:30:25.772Z,79.47
2023-05-14T00:32:53.495Z,79.68
2023-05-14T00:35:21.392Z,79.05
2023-05-14T00:37:48.285Z,79.41
2023-05-14T00:40:15.490Z,79.17
2023-05-14T00:42:42.091Z,79.20
2023-05-14T00:45:09.146Z,78.44
2023-05-14T00:47:36.476Z,78.29
2023-05-14T00:50:04.621Z,78.22
2023-05-14T00:52:32.130Z,78.51
2023-05-14T00:54:59.298Z,78.25
2023-05-14T00:57:26.284Z,77.91
2023-05-14T00:59:53.063Z,77.87
2023-05-14T01:02:19.776Z,78.06
2023-05-14T01:04:46.892Z,78.26
2023-05-14T01:07:38.066Z,78.11
2023-05-14T01:10:23.534Z,77.84
2023-05-14T01:13:20.860Z,78.15
2023-05-14T01:15:47.845Z,78.21
2023-05-14T01:18:18.358Z,78.35
2023-05-14T01:20:45.870Z,78.73
2023-05-14T01:23:12.524Z,79.10
2023-05-14T01:25:39.119Z,79.18
2023-05-14T01:28:34.355Z,79.09
2023-05-14T01:31:08.042Z,79.35
2023-05-14T01:33:36.663Z,78.91
2023-05-14T01:36:03.916Z,78.71
2023-05-14T01:38:33.913Z,79.36
2023-05-14T01:41:01.188Z,79.94
2023-05-14T01:43:29.142Z,80.65
2023-05-14T01:45:56.034Z,80.12
2023-05-14T01:48:22.712Z,80.00
2023-05-14T01:50:49.352Z,80.14
2023-05-14T01:53:15.953Z,79.24
2023-05-14T01:55:42.580Z,78.75
2023-05-14T01:58:09.579Z,77.85
2023-05-14T02:00:36.284Z,77.74
2023-05-14T02:03:02.956Z,77.78
2023-05-14T02:05:29.618Z,78.43
2023-05-14T02:07:56.271Z,78.78
2023-05-14T02:10:23.133Z,77.22
2023-05-14T02:12:49.991Z,76.96
2023-05-14T02:15:16.738Z,77.33
2023-05-14T02:17:43.635Z,78.82
2023-05-14T02:20:11.340Z,79.33
2023-05-14T02:22:38.130Z,79.33
2023-05-14T02:25:05.475Z,79.80
2023-05-14T02:27:32.199Z,80.07
2023-05-14T02:30:00.862Z,80.28
2023-05-14T02:32:28.395Z,80.35
2023-05-14T02:34:55.295Z,80.55
2023-05-14T02:37:22.004Z,80.34
2023-05-14T02:39:49.346Z,80.62
2023-05-14T02:42:16.008Z,80.53
2023-05-14T02:44:42.621Z,80.97
2023-05-14T02:47:09.369Z,80.50
2023-05-14T02:49:36.096Z,81.25
2023-05-14T02:52:03.553Z,80.86
2023-05-14T02:54:30.307Z,80.91
2023-05-14T02:56:57.102Z,80.98
2023-05-14T02:59:24.874Z,81.14
2023-05-14T03:01:52.055Z,81.37
2023-05-14T03:04:19.095Z,81.50
2023-05-14T03:06:45.737Z,81.95
2023-05-14T03:09:12.454Z,81.98
2023-05-14T03:11:39.127Z,82.00
2023-05-14T03:14:05.754Z,82.31
2023-05-14T03:16:32.589Z,82.71
2023-05-14T03:18:59.393Z,83.16
2023-05-14T03:21:26.301Z,83.23
2023-05-14T03:23:53.618Z,83.29
2023-05-14T03:26:21.587Z,82.90
2023-05-14T03:28:48.598Z,83.17
2023-05-14T03:31:15.411Z,83.00
2023-05-14T03:33:42.229Z,83.17
2023-05-14T03:36:09.393Z,82.88
2023-05-14T03:38:36.003Z,82.91
2023-05-14T03:41:02.673Z,82.98
2023-05-14T03:43:29.397Z,82.81
2023-05-14T03:45:56.139Z,82.54
2023-05-14T03:48:22.971Z,82.29
2023-05-14T03:50:49.744Z,82.21
2023-05-14T03:53:16.793Z,82.29
2023-05-14T03:55:45.389Z,82.26
2023-05-14T03:58:14.241Z,82.58
2023-05-14T04:00:42.333Z,82.45
2023-05-14T04:03:10.428Z,82.26
2023-05-14T04:05:37.073Z,82.47
2023-05-14T04:08:03.872Z,82.43
2023-05-14T04:10:32.080Z,82.65
2023-05-14T04:12:59.633Z,83.17
2023-05-14T04:15:31.052Z,83.23
2023-05-14T04:17:57.816Z,83.20
2023-05-14T04:20:24.693Z,83.25
2023-05-14T04:22:51.491Z,83.55
2023-05-14T04:25:18.550Z,83.83
2023-05-14T04:27:45.346Z,83.29
2023-05-14T04:30:12.481Z,83.36
2023-05-14T04:32:39.387Z,83.06
2023-05-14T04:35:06.753Z,82.65
2023-05-14T04:37:33.361Z,81.68
2023-05-14T04:40:00.362Z,81.57
2023-05-14T04:42:27.110Z,81.64
2023-05-14T04:44:53.850Z,81.19
2023-05-14T04:47:21.124Z,81.35
2023-05-14T04:49:47.948Z,81.56
2023-05-14T04:52:14.821Z,80.79
2023-05-14T04:54:41.525Z,80.82
2023-05-14T04:57:08.116Z,79.78
2023-05-14T04:59:34.771Z,79.58
2023-05-14T05:02:01.408Z,79.43
2023-05-14T05:04:28.057Z,79.90
2023-05-14T05:06:54.681Z,79.37
2023-05-14T05:09:21.272Z,78.79
2023-05-14T05:11:47.965Z,77.95
2023-05-14T05:14:14.606Z,77.88
2023-05-14T05:16:41.303Z,77.81
2023-05-14T05:19:07.998Z,77.57
2023-05-14T05:21:35.251Z,77.37
2023-05-14T05:24:01.920Z,76.48
2023-05-14T05:26:28.658Z,76.18
2023-05-14T05:28:55.318Z,76.96
2023-05-14T05:31:21.981Z,76.41
2023-05-14T05:33:48.631Z,76.30
2023-05-14T05:36:15.338Z,75.46
2023-05-14T05:38:42.167Z,75.39
2023-05-14T05:41:08.758Z,73.88
2023-05-14T05:43:35.460Z,73.07
2023-05-14T05:46:02.380Z,73.71
2023-05-14T05:48:29.033Z,73.02
2023-05-14T05:50:55.837Z,72.23
2023-05-14T05:53:22.546Z,72.86
2023-05-14T05:55:51.439Z,72.18
2023-05-14T05:58:19.029Z,72.32
2023-05-14T06:00:47.084Z,72.36
2023-05-14T06:03:14.036Z,71.59
2023-05-14T06:05:40.952Z,71.81
2023-05-14T06:08:07.649Z,71.52
2023-05-14T06:10:36.202Z,70.11
2023-05-14T06:13:03.134Z,70.55
2023-05-14T06:15:29.783Z,68.39
2023-05-14T06:17:56.401Z,69.10
2023-05-14T06:20:23.267Z,70.32
2023-05-14T06:22:50.196Z,69.06
2023-05-14T06:25:16.856Z,69.13
2023-05-14T06:27:44.041Z,67.66
2023-05-14T06:30:11.312Z,67.83
2023-05-14T06:32:37.976Z,65.29
2023-05-14T06:35:05.188Z,67.69
2023-05-14T06:37:31.826Z,68.07
2023-05-14T06:39:58.652Z,67.01
2023-05-14T06:42:26.567Z,67.05
2023-05-14T06:44:53.355Z,66.13
2023-05-14T06:47:19.899Z,64.69
2023-05-14T06:49:46.540Z,66.50
2023-05-14T06:52:13.165Z,65.54
2023-05-14T06:54:39.828Z,62.04
2023-05-14T06:57:06.444Z,62.90
2023-05-14T06:59:33.295Z,62.62
2023-05-14T07:02:00.079Z,63.49
2023-05-14T07:04:27.291Z,64.47
2023-05-14T07:06:54.201Z,63.48
2023-05-14T07:09:20.821Z,62.89
2023-05-14T07:11:48.239Z,59.66
2023-05-14T07:14:14.896Z,59.14
2023-05-14T07:16:42.727Z,59.97
2023-05-14T07:19:09.415Z,60.07
2023-05-14T07:21:36.244Z,58.55
2023-05-14T07:24:03.230Z,57.99
2023-05-14T07:26:30.506Z,57.43
2023-05-14T07:28:57.314Z,56.35
2023-05-14T07:31:24.254Z,56.78
2023-05-14T07:33:50.919Z,59.96
2023-05-14T07:36:17.769Z,56.95
2023-05-14T07:38:44.565Z,57.94
2023-05-14T07:41:12.741Z,59.26
2023-05-14T07:43:40.594Z,57.59
2023-05-14T07:46:07.285Z,56.91
2023-05-14T07:48:34.172Z,57.53
2023-05-14T07:51:00.861Z,58.82
2023-05-14T07:53:27.438Z,60.02
2023-05-14T07:55:54.580Z,54.96
2023-05-14T07:58:21.227Z,54.25
2023-05-14T08:00:48.170Z,53.92
2023-05-14T08:03:15.090Z,55.98
2023-05-14T08:05:41.875Z,54.38
2023-05-14T08:08:08.493Z,56.01
2023-05-14T08:10:35.322Z,54.98
2023-05-14T08:13:02.019Z,55.31
2023-05-14T08:15:28.755Z,55.15
2023-05-14T08:17:55.785Z,51.08
2023-05-14T08:20:23.098Z,50.57
2023-05-14T08:22:49.879Z,50.29
2023-05-14T08:25:16.640Z,49.97
2023-05-14T08:27:43.301Z,51.92
2023-05-14T08:30:10.288Z,52.66
2023-05-14T08:32:38.671Z,52.42
2023-05-14T08:35:05.790Z,50.92
2023-05-14T08:37:32.512Z,52.31
2023-05-14T08:39:59.305Z,53.21
2023-05-14T08:42:26.990Z,51.02
2023-05-14T08:45:03.545Z,47.15
2023-05-14T08:47:30.863Z,49.22
2023-05-14T08:50:06.322Z,48.77
2023-05-14T08:52:34.660Z,50.01
2023-05-14T08:55:04.197Z,51.57
2023-05-14T08:57:32.670Z,49.04
2023-05-14T08:59:59.581Z,50.38
2023-05-14T09:02:31.482Z,49.71
2023-05-14T09:05:00.442Z,51.03
2023-05-14T09:07:28.085Z,49.81
2023-05-14T09:09:55.782Z,49.61
2023-05-14T09:12:22.832Z,47.89
2023-05-14T09:14:50.589Z,48.66
2023-05-14T09:17:18.871Z,47.74
2023-05-14T09:19:53.057Z,47.77
2023-05-14T09:22:21.172Z,46.29
2023-05-14T09:25:05.696Z,46.67
2023-05-14T09:27:33.293Z,46.98
2023-05-14T09:30:13.532Z,47.27
2023-05-14T09:32:44.321Z,48.10
2023-05-14T09:35:11.932Z,47.38
2023-05-14T09:37:42.184Z,47.11
2023-05-14T09:40:09.544Z,38.05
2023-05-14T09:42:36.162Z,36.96
2023-05-14T09:45:04.726Z,36.46
2023-05-14T09:47:32.714Z,36.04
2023-05-14T09:49:59.554Z,34.36
2023-05-14T09:52:26.430Z,34.81
2023-05-14T09:54:53.474Z,36.71
2023-05-14T09:57:20.837Z,38.54
2023-05-14T09:59:47.633Z,38.55
2023-05-14T10:02:26.436Z,38.20
2023-05-14T10:04:54.801Z,37.64
2023-05-14T10:07:29.475Z,42.12
2023-05-14T10:10:01.807Z,40.04
2023-05-14T10:12:38.699Z,43.16
2023-05-14T10:15:12.867Z,40.46
2023-05-14T10:17:41.168Z,39.82
2023-05-14T10:20:10.938Z,37.51
2023-05-14T10:22:37.664Z,40.14
2023-05-14T10:25:05.169Z,41.04
2023-05-14T10:27:32.275Z,44.10
2023-05-14T10:29:59.068Z,42.94
2023-05-14T10:32:27.581Z,42.43
2023-05-14T10:34:54.298Z,40.53
2023-05-14T10:37:22.633Z,41.36
2023-05-14T10:39:59.526Z,43.26
2023-05-14T10:42:28.825Z,43.94
2023-05-14T10:44:58.799Z,44.76
2023-05-14T10:47:29.450Z,43.70
2023-05-14T10:49:56.812Z,44.56
2023-05-14T10:52:24.123Z,46.16
2023-05-14T10:55:03.680Z,48.09
2023-05-14T10:57:31.957Z,46.23
2023-05-14T11:00:01.166Z,42.00
2023-05-14T11:02:28.775Z,40.31
2023-05-14T11:05:08.544Z,36.94
2023-05-14T11:07:37.908Z,36.57
2023-05-14T11:10:09.895Z,35.43
2023-05-14T11:12:40.874Z,32.18
2023-05-14T11:15:09.912Z,32.19
2023-05-14T11:17:37.989Z,30.31
2023-05-14T11:20:06.767Z,31.93
2023-05-14T11:22:34.583Z,27.50
2023-05-14T11:25:01.385Z,28.94
2023-05-14T11:27:28.406Z,26.64
2023-05-14T11:29:55.960Z,27.54
2023-05-14T11:32:22.785Z,26.36
2023-05-14T11:34:49.769Z,28.61
2023-05-14T11:37:16.827Z,28.47
2023-05-14T11:39:54.791Z,31.55
2023-05-14T11:42:22.661Z,32.55
2023-05-14T11:44:51.659Z,34.10
2023-05-14T11:47:21.071Z,34.00
2023-05-14T11:49:48.673Z,31.83
2023-05-14T11:52:19.226Z,33.17
2023-05-14T11:54:46.780Z,30.26
2023-05-14T11:57:16.718Z,29.43
2023-05-14T11:59:44.758Z,30.40
2023-05-14T12:02:17.387Z,31.49
2023-05-14T12:04:49.358Z,30.92
2023-05-14T12:07:16.450Z,33.02
2023-05-14T12:09:51.558Z,33.40
2023-05-14T12:12:22.581Z,36.59
2023-05-14T12:14:50.259Z,36.07
2023-05-14T12:17:22.195Z,36.53
2023-05-14T12:19:51.434Z,38.02
2023-05-14T12:22:21.884Z,35.32
2023-05-14T12:24:56.632Z,37.11
2023-05-14T12:27:28.607Z,36.96
2023-05-14T12:30:19.873Z,34.53
2023-05-14T12:32:52.870Z,36.44
2023-05-14T12:35:21.862Z,39.24
2023-05-14T12:37:48.560Z,38.46
2023-05-14T12:40:15.322Z,35.46
2023-05-14T12:42:42.167Z,37.07
2023-05-14T12:45:09.079Z,36.99
2023-05-14T12:47:36.911Z,37.44
2023-05-14T12:50:04.716Z,37.36
2023-05-14T12:55:01.453Z,37.56
2023-05-14T12:57:29.844Z,38.97
2023-05-14T12:59:57.154Z,38.96
2023-05-14T13:02:24.580Z,37.51
2023-05-14T13:04:51.257Z,36.86
2023-05-14T13:07:17.891Z,37.40
2023-05-14T13:09:44.532Z,35.39
2023-05-14T13:12:11.130Z,35.58
2023-05-14T13:14:37.818Z,37.63
2023-05-14T13:17:05.126Z,39.58
2023-05-14T13:19:31.910Z,39.42
2023-05-14T13:21:58.515Z,44.11
2023-05-14T13:24:25.184Z,41.85
2023-05-14T13:26:51.790Z,43.36
2023-05-14T13:29:18.439Z,44.42
2023-05-14T13:31:45.022Z,43.73
2023-05-14T13:34:13.070Z,42.59
2023-05-14T13:36:42.172Z,41.67
2023-05-14T13:39:09.842Z,44.16
2023-05-14T13:41:37.805Z,44.14
2023-05-14T13:44:04.919Z,43.66
2023-05-14T13:46:31.584Z,45.31
2023-05-14T13:48:58.347Z,44.43
2023-05-14T13:51:25.160Z,44.68
2023-05-14T13:53:51.798Z,45.47
2023-05-14T13:56:18.689Z,46.07
2023-05-14T13:58:46.282Z,44.89
2023-05-14T14:01:13.035Z,45.46
2023-05-14T14:03:39.697Z,46.41
2023-05-14T14:06:06.388Z,45.79
2023-05-14T14:08:39.607Z,43.83
2023-05-14T14:11:06.274Z,43.91
2023-05-14T14:13:32.876Z,42.78
2023-05-14T14:15:59.522Z,43.82
2023-05-14T14:18:32.570Z,42.64
2023-05-14T14:20:59.197Z,44.54
2023-05-14T14:23:25.985Z,46.26
2023-05-14T14:25:52.630Z,43.73
2023-05-14T14:28:19.481Z,44.19
2023-05-14T14:30:46.278Z,45.86
2023-05-14T14:33:12.910Z,43.59
2023-05-14T14:35:40.037Z,45.60
2023-05-14T14:38:06.614Z,46.30
2023-05-14T14:40:34.398Z,46.44
2023-05-14T14:43:02.065Z,47.48
2023-05-14T14:45:29.196Z,47.55
2023-05-14T14:48:37.435Z,47.70
2023-05-14T14:51:06.097Z,48.43
2023-05-14T14:53:33.424Z,47.88
2023-05-14T14:56:01.017Z,48.72
2023-05-14T14:58:28.397Z,48.73
2023-05-14T15:00:56.347Z,48.94
2023-05-14T15:03:24.121Z,48.42
2023-05-14T15:05:52.191Z,50.27
2023-05-14T15:08:19.233Z,47.78
2023-05-14T15:10:46.357Z,48.22
2023-05-14T15:13:13.303Z,50.27
2023-05-14T15:15:39.879Z,48.70
2023-05-14T15:18:06.573Z,48.75
2023-05-14T15:20:33.449Z,48.91
2023-05-14T15:23:00.095Z,47.81
2023-05-14T15:25:27.184Z,47.36
2023-05-14T15:27:53.919Z,46.15
2023-05-14T15:30:20.900Z,46.09
2023-05-14T15:32:47.667Z,45.95
2023-05-14T15:35:14.503Z,45.56
2023-05-14T15:37:43.457Z,46.65
2023-05-14T15:40:11.379Z,46.86
2023-05-14T15:42:39.216Z,46.59
2023-05-14T15:45:06.118Z,47.72
2023-05-14T15:47:32.811Z,47.69
2023-05-14T15:49:59.927Z,47.89
2023-05-14T15:52:26.933Z,46.65
2023-05-14T15:54:54.294Z,47.11
2023-05-14T15:57:20.932Z,47.03
2023-05-14T15:59:47.560Z,49.10
2023-05-14T16:02:15.355Z,47.99
2023-05-14T16:04:41.997Z,45.99
2023-05-14T16:07:12.409Z,46.29
2023-05-14T16:09:39.433Z,48.10
2023-05-14T16:12:07.356Z,48.91
2023-05-14T16:14:35.569Z,48.92
2023-05-14T16:17:02.603Z,47.47
2023-05-14T16:19:29.314Z,47.35
2023-05-14T16:21:55.900Z,47.58
2023-05-14T16:24:22.491Z,49.29
2023-05-14T16:26:49.430Z,47.38
2023-05-14T16:29:16.920Z,47.75
2023-05-14T16:31:43.789Z,47.72
2023-05-14T16:34:10.617Z,48.62
2023-05-14T16:36:37.418Z,48.14
2023-05-14T16:39:08.149Z,48.70
2023-05-14T16:41:38.409Z,48.70
2023-05-14T16:44:05.102Z,48.36
2023-05-14T16:46:32.399Z,49.49
2023-05-14T16:48:59.316Z,49.51
2023-05-14T16:51:25.948Z,49.84
2023-05-14T16:53:53.984Z,50.37
2023-05-14T16:56:22.465Z,50.72
2023-05-14T16:58:49.259Z,50.76
2023-05-14T17:01:15.925Z,50.90
2023-05-14T17:03:43.575Z,51.48
2023-05-14T17:06:10.411Z,52.21
2023-05-14T17:08:37.052Z,52.51
2023-05-14T17:11:05.880Z,53.58
2023-05-14T17:13:33.083Z,53.13
2023-05-14T17:16:00.587Z,51.85
2023-05-14T17:18:27.324Z,52.34
2023-05-14T17:20:53.961Z,52.92
2023-05-14T17:23:20.688Z,52.86
2023-05-14T17:25:47.332Z,52.79
2023-05-14T17:28:14.078Z,54.34
2023-05-14T17:30:41.115Z,54.98
2023-05-14T17:33:08.065Z,54.42
2023-05-14T17:35:36.262Z,54.60
2023-05-14T17:38:03.562Z,53.12
2023-05-14T17:40:30.286Z,52.99
2023-05-14T17:42:56.890Z,53.24
2023-05-14T17:45:23.952Z,54.60
2023-05-14T17:47:51.525Z,54.75
2023-05-14T17:50:18.811Z,53.56
2023-05-14T17:52:46.179Z,54.21
2023-05-14T17:55:13.176Z,54.38
2023-05-14T17:57:39.943Z,54.36
2023-05-14T18:00:07.667Z,54.10
2023-05-14T18:02:38.417Z,53.88
2023-05-14T18:05:06.012Z,54.14
2023-05-14T18:07:32.793Z,54.28
2023-05-14T18:09:59.445Z,53.92
2023-05-14T18:12:26.744Z,53.06
2023-05-14T18:14:53.750Z,53.41
2023-05-14T18:17:20.463Z,54.64
2023-05-14T18:19:48.280Z,54.77
2023-05-14T18:22:15.537Z,54.75
2023-05-14T18:24:44.125Z,54.39
2023-05-14T18:27:11.109Z,55.41
2023-05-14T18:29:37.862Z,55.41
2023-05-14T18:32:05.081Z,55.28
2023-05-14T18:34:32.288Z,55.73
2023-05-14T18:36:58.949Z,56.48
2023-05-14T18:39:26.414Z,55.98
2023-05-14T18:41:53.211Z,56.23
2023-05-14T18:44:20.162Z,57.38
2023-05-14T18:46:46.902Z,56.63
2023-05-14T18:49:13.563Z,56.71
2023-05-14T18:51:40.295Z,57.15
2023-05-14T18:54:06.914Z,57.37
2023-05-14T18:56:34.777Z,58.06
2023-05-14T18:59:02.065Z,59.43
2023-05-14T19:01:28.724Z,59.16
2023-05-14T19:03:56.152Z,59.42
2023-05-14T19:06:22.963Z,59.88
2023-05-14T19:08:50.411Z,59.99
2023-05-14T19:11:18.160Z,59.85
2023-05-14T19:13:46.725Z,60.42
2023-05-14T19:16:13.551Z,60.49
2023-05-14T19:18:40.465Z,61.03
2023-05-14T19:21:07.072Z,61.38
2023-05-14T19:23:33.745Z,61.45
2023-05-14T19:26:01.144Z,61.94
2023-05-14T19:28:28.088Z,61.96
2023-05-14T19:30:54.776Z,62.35
2023-05-14T19:33:21.469Z,62.59
2023-05-14T19:35:48.147Z,62.30
2023-05-14T19:38:15.057Z,62.69
2023-05-14T19:40:42.987Z,62.50
2023-05-14T19:43:11.780Z,62.76
2023-05-14T19:45:39.288Z,62.95
2023-05-14T19:48:06.660Z,63.31
2023-05-14T19:50:34.306Z,63.46
2023-05-14T19:53:01.184Z,63.73
2023-05-14T19:55:27.990Z,63.71
2023-05-14T19:57:54.633Z,63.58
2023-05-14T20:00:22.834Z,64.12
2023-05-14T20:02:49.610Z,64.57
2023-05-14T20:05:16.483Z,64.40
2023-05-14T20:07:43.806Z,64.19
2023-05-14T20:10:10.935Z,64.17
2023-05-14T20:12:37.575Z,64.46
2023-05-14T20:15:05.412Z,64.96
2023-05-14T20:17:32.117Z,64.60
2023-05-14T20:19:58.928Z,64.72
2023-05-14T20:22:25.665Z,64.88
2023-05-14T20:24:52.712Z,64.78
2023-05-14T20:27:19.493Z,65.26
2023-05-14T20:29:46.913Z,65.55
2023-05-14T20:32:13.785Z,65.54
2023-05-14T20:34:40.379Z,65.81
2023-05-14T20:37:08.027Z,65.83
2023-05-14T20:39:34.795Z,65.78
2023-05-14T20:42:01.549Z,66.25
2023-05-14T20:44:28.120Z,66.28
2023-05-14T20:46:55.018Z,66.13
2023-05-14T20:49:21.606Z,66.33
2023-05-14T20:51:48.210Z,66.70
2023-05-14T20:54:14.827Z,66.68
2023-05-14T20:56:41.473Z,66.60
2023-05-14T20:59:08.228Z,66.44
2023-05-14T21:01:35.015Z,66.48
2023-05-14T21:04:01.682Z,67.07
2023-05-14T21:06:28.434Z,67.11
2023-05-14T21:08:55.978Z,67.55
2023-05-14T21:11:23.085Z,67.30
2023-05-14T21:13:49.834Z,67.32
2023-05-14T21:16:16.582Z,67.86
2023-05-14T21:18:44.012Z,67.76
2023-05-14T21:21:10.714Z,67.91
2023-05-14T21:23:37.292Z,68.01
2023-05-14T21:26:04.025Z,67.83
2023-05-14T21:28:31.387Z,68.04
2023-05-14T21:30:58.098Z,68.67
2023-05-14T21:33:24.805Z,68.39
2023-05-14T21:35:51.642Z,68.18
2023-05-14T21:38:18.355Z,69.80
2023-05-14T21:40:45.081Z,69.42
2023-05-14T21:43:11.707Z,68.67
2023-05-14T21:45:38.981Z,68.63
2023-05-14T21:48:05.890Z,68.36
2023-05-14T21:50:32.547Z,69.03
2023-05-14T21:52:59.096Z,68.89
2023-05-14T21:55:27.659Z,69.48
2023-05-14T21:57:54.669Z,70.88
2023-05-14T22:00:24.287Z,70.84
2023-05-14T22:02:52.943Z,70.81
2023-05-14T22:05:20.581Z,71.85
2023-05-14T22:07:47.496Z,71.63
2023-05-14T22:10:15.219Z,72.28
2023-05-14T22:12:43.781Z,72.75
2023-05-14T22:15:11.239Z,72.04
2023-05-14T22:17:38.473Z,72.29
2023-05-14T22:20:06.827Z,71.73
2023-05-14T22:22:34.335Z,71.90
2023-05-14T22:25:01.321Z,71.73
2023-05-14T22:27:28.056Z,71.59
2023-05-14T22:29:55.230Z,71.39
2023-05-14T22:32:21.971Z,70.90
2023-05-14T22:34:48.658Z,70.78
2023-05-14T22:37:15.675Z,70.89
2023-05-14T22:39:42.857Z,70.81
2023-05-14T22:42:09.614Z,70.95
2023-05-14T22:44:37.043Z,70.80
2023-05-14T22:47:07.256Z,71.44
2023-05-14T22:49:33.959Z,71.03
2023-05-14T22:52:01.295Z,71.77
2023-05-14T22:54:27.909Z,71.29
2023-05-14T22:56:54.584Z,71.46
2023-05-14T22:59:23.441Z,71.34
2023-05-14T23:01:50.532Z,71.67
2023-05-14T23:04:17.253Z,71.70
2023-05-14T23:06:44.405Z,72.31
2023-05-14T23:09:11.009Z,71.66
2023-05-14T23:11:37.726Z,71.58
2023-05-14T23:14:04.311Z,72.25
2023-05-14T23:16:31.832Z,72.08
2023-05-14T23:18:58.738Z,72.57
2023-05-14T23:21:25.666Z,72.57
2023-05-14T23:23:52.365Z,72.86
2023-05-14T23:26:19.063Z,73.49
2023-05-14T23:28:47.224Z,73.29
2023-05-14T23:31:13.976Z,73.94
2023-05-14T23:33:40.697Z,73.79
2023-05-14T23:36:07.969Z,73.38
2023-05-14T23:38:34.817Z,73.66
2023-05-14T23:41:01.782Z,73.84
2023-05-14T23:43:28.458Z,74.14
2023-05-14T23:45:55.144Z,75.26
2023-05-14T23:48:22.274Z,75.63
2023-05-14T23:50:49.051Z,75.90
2023-05-14T23:53:15.708Z,75.56
2023-05-14T23:55:42.421Z,75.23
2023-05-14T23:58:09.195Z,75.11
